Time;durP1;ratioP1;P1;durP2;ratioP2;P2;SDS_P1;SDS_P2;PMS_P1;PMS_P2;Temp;Humidity;BMP_temperature;BMP_pressure;BME280_temperature;BME280_humidity;BME280_pressure;Samples;Min_cycle;Max_cycle;Signal;HPM_P1;HPM_P2
2023/06/03 00:01:03;;;;;;;7.07;4.62;;;;;;;13.82;100.00;98600.06;4484150;31;20088;-68
2023/06/03 00:03:32;;;;;;;11.82;4.70;;;;;;;13.79;100.00;98603.03;4484254;31;20072;-68
2023/06/03 00:06:00;;;;;;;9.65;4.60;;;;;;;13.76;100.00;98603.34;4484169;31;20531;-68
2023/06/03 00:08:27;;;;;;;9.93;4.80;;;;;;;13.68;100.00;98598.09;4485944;31;20164;-68
2023/06/03 00:10:54;;;;;;;6.93;4.20;;;;;;;13.66;100.00;98609.59;4485992;32;20096;-68
2023/06/03 00:13:22;;;;;;;10.18;5.30;;;;;;;13.60;100.00;98612.88;4477024;32;20088;-68
2023/06/03 00:15:49;;;;;;;8.40;4.60;;;;;;;13.59;100.00;98605.94;4476979;32;20100;-68
2023/06/03 00:18:17;;;;;;;7.80;4.72;;;;;;;13.58;100.00;98614.84;4486259;31;20470;-68
2023/06/03 00:20:47;;;;;;;11.68;5.15;;;;;;;13.59;100.00;98613.84;4486129;32;20096;-68
2023/06/03 00:23:15;;;;;;;11.35;4.87;;;;;;;13.60;100.00;98612.06;4486459;31;20114;-68
2023/06/03 00:25:43;;;;;;;9.82;4.70;;;;;;;13.58;100.00;98614.84;4486339;31;20119;-68
2023/06/03 00:28:10;;;;;;;13.38;5.28;;;;;;;13.55;100.00;98614.31;4486268;31;20088;-68
2023/06/03 00:30:37;;;;;;;12.45;4.50;;;;;;;13.48;100.00;98608.88;4486337;32;20163;-68
2023/06/03 00:33:06;;;;;;;8.35;4.87;;;;;;;13.47;100.00;98608.06;4486369;31;20119;-68
2023/06/03 00:35:34;;;;;;;8.52;4.70;;;;;;;13.42;100.00;98618.22;4486335;31;20128;-68
2023/06/03 00:38:02;;;;;;;9.27;5.37;;;;;;;13.41;100.00;98623.66;4486250;31;20092;-68
2023/06/03 00:40:29;;;;;;;6.37;4.15;;;;;;;13.37;100.00;98622.31;4486145;31;20096;-68
2023/06/03 00:42:59;;;;;;;6.55;4.40;;;;;;;13.32;100.00;98626.25;4486099;32;20589;-68
2023/06/03 00:45:26;;;;;;;8.35;4.70;;;;;;;13.29;100.00;98623.94;4486350;32;20161;-68
2023/06/03 00:47:54;;;;;;;12.15;5.57;;;;;;;13.25;100.00;98627.84;4485862;32;20088;-68
2023/06/03 00:50:21;;;;;;;12.13;4.85;;;;;;;13.22;100.00;98625.53;4486176;31;20154;-68
2023/06/03 00:52:49;;;;;;;10.45;4.32;;;;;;;13.22;100.00;98625.53;4484616;32;20645;-68
2023/06/03 00:55:18;;;;;;;10.43;5.00;;;;;;;13.27;100.00;98632.94;4486195;31;20088;-68
2023/06/03 00:57:45;;;;;;;8.32;4.57;;;;;;;13.36;100.00;98626.75;4484559;32;20151;-68
2023/06/03 01:00:12;;;;;;;8.95;4.28;;;;;;;13.47;100.00;98629.13;4484527;32;20167;-68
2023/06/03 01:02:43;;;;;;;11.12;4.55;;;;;;;13.50;100.00;98620.06;4484967;31;20106;-68
2023/06/03 01:05:12;;;;;;;7.97;4.68;;;;;;;13.53;100.00;98624.19;4484901;31;20434;-68
2023/06/03 01:07:46;;;;;;;20.75;5.05;;;;;;;13.56;100.00;98627.31;4483760;32;20139;-68
2023/06/03 01:10:20;;;;;;;8.05;4.70;;;;;;;13.55;100.00;98627.47;4485192;31;20105;-68
2023/06/03 01:12:58;;;;;;;8.52;5.03;;;;;;;13.50;100.00;98627.97;4479363;31;20089;-68
2023/06/03 01:15:27;;;;;;;7.47;4.35;;;;;;;13.44;100.00;98632.06;4463862;32;20112;-68
2023/06/03 01:17:57;;;;;;;8.27;4.60;;;;;;;13.36;100.00;98625.94;4453467;32;20093;-68
2023/06/03 01:20:26;;;;;;;8.27;4.60;;;;;;;13.30;100.00;98625.56;4452609;32;20115;-68
2023/06/03 01:23:17;;;;;;;12.80;5.00;;;;;;;13.22;100.00;98630.78;4452621;32;20092;-68
2023/06/03 01:25:45;;;;;;;7.95;5.00;;;;;;;13.11;100.00;98631.91;4452336;32;20148;-68
2023/06/03 01:28:12;;;;;;;9.55;4.82;;;;;;;13.01;100.00;98630.38;4453691;32;20123;-68
2023/06/03 01:30:39;;;;;;;8.68;4.85;;;;;;;12.99;100.00;98633.16;4453446;32;20109;-68
2023/06/03 01:33:06;;;;;;;8.23;4.47;;;;;;;12.99;100.00;98625.25;4452463;32;20085;-68
2023/06/03 01:35:34;;;;;;;8.95;4.55;;;;;;;12.98;100.00;98633.31;4453573;32;20116;-68
2023/06/03 01:38:02;;;;;;;9.80;4.30;;;;;;;12.93;100.00;98631.97;4453500;32;20360;-67
2023/06/03 01:40:30;;;;;;;8.70;4.97;;;;;;;12.99;100.00;98627.03;4452489;32;20100;-67
2023/06/03 01:42:58;;;;;;;8.15;4.25;;;;;;;13.00;100.00;98644.47;4452150;32;20097;-68
2023/06/03 01:45:25;;;;;;;7.25;4.25;;;;;;;12.98;100.00;98638.56;4452342;32;20119;-68
2023/06/03 01:47:52;;;;;;;9.90;4.68;;;;;;;12.91;100.00;98631.31;4453326;32;20123;-68
2023/06/03 01:50:22;;;;;;;10.20;4.45;;;;;;;12.83;100.00;98636.50;4453580;32;20168;-68
2023/06/03 01:52:50;;;;;;;9.63;4.78;;;;;;;12.78;100.00;98647.47;4453522;32;20159;-68
2023/06/03 01:55:18;;;;;;;7.25;3.95;;;;;;;12.72;100.00;98644.66;4451995;32;20124;-67
2023/06/03 01:57:49;;;;;;;14.15;5.12;;;;;;;12.67;100.00;98647.75;4453413;32;20092;-69
2023/06/03 02:00:16;;;;;;;6.55;4.22;;;;;;;12.64;100.00;98657.72;4451113;32;79679;-67
2023/06/03 02:02:43;;;;;;;10.18;4.82;;;;;;;12.65;100.00;98654.13;4452702;32;20089;-68
2023/06/03 02:05:11;;;;;;;8.07;4.60;;;;;;;12.60;100.00;98658.03;4454223;32;20497;-68
2023/06/03 02:07:38;;;;;;;10.32;4.45;;;;;;;12.57;100.00;98660.13;4452774;32;20122;-67
2023/06/03 02:10:07;;;;;;;13.07;5.30;;;;;;;12.54;100.00;98668.34;4454466;32;20120;-67
2023/06/03 02:12:34;;;;;;;9.32;4.47;;;;;;;12.52;100.00;98672.88;4458331;32;20127;-67
2023/06/03 02:15:12;;;;;;;9.13;4.55;;;;;;;12.55;100.00;98677.84;4472560;32;20104;-67
2023/06/03 02:17:40;;;;;;;11.10;4.35;;;;;;;12.58;100.00;98673.13;4485461;32;20149;-67
2023/06/03 02:20:08;;;;;;;8.23;4.47;;;;;;;12.63;100.00;98666.56;4485335;31;20434;-67
2023/06/03 02:22:37;;;;;;;9.73;5.12;;;;;;;12.65;100.00;98667.25;4485183;32;20080;-68
2023/06/03 02:25:06;;;;;;;8.80;4.30;;;;;;;12.68;100.00;98670.41;4485379;31;20118;-68
2023/06/03 02:27:33;;;;;;;12.88;4.55;;;;;;;12.71;100.00;98671.91;4485416;31;20100;-68
2023/06/03 02:30:00;;;;;;;8.80;4.40;;;;;;;12.71;100.00;98674.53;4484491;31;20122;-68
2023/06/03 02:32:28;;;;;;;14.40;4.45;;;;;;;12.71;100.00;98669.28;4485516;32;20446;-68
2023/06/03 02:34:55;;;;;;;11.60;4.70;;;;;;;12.66;100.00;98676.81;4485217;32;20629;-68
2023/06/03 02:37:23;;;;;;;8.18;4.32;;;;;;;12.66;100.00;98671.53;4485658;31;20127;-68
2023/06/03 02:39:50;;;;;;;8.55;4.57;;;;;;;12.67;100.00;98676.66;4485167;32;20196;-68
2023/06/03 02:42:17;;;;;;;10.63;4.68;;;;;;;12.63;100.00;98674.44;4485452;31;20081;-68
2023/06/03 02:44:44;;;;;;;7.28;4.43;;;;;;;12.57;100.00;98673.28;4485128;31;20485;-68
2023/06/03 02:47:12;;;;;;;9.05;4.25;;;;;;;12.53;100.00;98678.00;4485454;31;20172;-68
2023/06/03 02:49:39;;;;;;;13.25;4.12;;;;;;;12.41;100.00;98676.59;4485184;32;20103;-68
2023/06/03 02:52:06;;;;;;;6.70;3.62;;;;;;;12.39;100.00;98686.44;4485419;31;20119;-68
2023/06/03 02:54:34;;;;;;;8.63;4.12;;;;;;;12.28;100.00;98698.00;4484195;32;20104;-67
2023/06/03 02:57:01;;;;;;;9.65;3.87;;;;;;;12.24;100.00;98694.00;4485037;32;20164;-67
2023/06/03 02:59:29;;;;;;;8.98;4.43;;;;;;;12.24;100.00;98700.06;4484951;31;20414;-67
2023/06/03 03:01:56;;;;;;;11.27;4.22;;;;;;;12.24;100.00;98697.44;4484952;32;20088;-67
2023/06/03 03:04:26;;;;;;;11.57;4.28;;;;;;;12.21;100.00;98704.81;4484861;32;20096;-67
2023/06/03 03:06:54;;;;;;;12.82;4.25;;;;;;;12.17;100.00;98706.91;4485085;31;20100;-67
2023/06/03 03:09:22;;;;;;;7.90;3.95;;;;;;;12.14;100.00;98712.47;4485056;32;20176;-67
2023/06/03 03:11:50;;;;;;;6.50;4.45;;;;;;;12.12;100.00;98708.34;4484885;31;20096;-67
2023/06/03 03:14:17;;;;;;;11.60;4.57;;;;;;;12.13;100.00;98710.00;4469918;32;20469;-67
2023/06/03 03:16:47;;;;;;;10.40;4.12;;;;;;;12.14;100.00;98717.72;4482332;32;20096;-68
2023/06/03 03:19:15;;;;;;;9.10;4.45;;;;;;;12.18;100.00;98719.06;4485177;31;20081;-67
2023/06/03 03:21:42;;;;;;;8.60;3.95;;;;;;;12.21;100.00;98721.37;4485103;32;20104;-67
2023/06/03 03:24:10;;;;;;;10.55;4.82;;;;;;;12.30;100.00;98716.22;4484631;31;20430;-67
2023/06/03 03:26:37;;;;;;;8.68;4.22;;;;;;;12.38;100.00;98722.38;4485225;31;20100;-67
2023/06/03 03:29:05;;;;;;;8.73;4.05;;;;;;;12.52;100.00;98735.97;4484893;32;20100;-67
2023/06/03 03:31:32;;;;;;;8.98;4.40;;;;;;;12.62;100.00;98736.72;4485094;31;20096;-67
2023/06/03 03:34:01;;;;;;;6.22;4.18;;;;;;;12.70;100.00;98736.78;4483388;32;20189;-68
2023/06/03 03:36:30;;;;;;;7.47;4.22;;;;;;;12.81;100.00;98738.34;4485014;32;20556;-68
2023/06/03 03:39:03;;;;;;;9.48;4.50;;;;;;;12.91;100.00;98741.72;4483607;32;20096;-68
2023/06/03 03:41:32;;;;;;;11.17;4.50;;;;;;;13.02;100.00;98739.81;4483357;32;20450;-68
2023/06/03 03:43:59;;;;;;;7.65;3.67;;;;;;;13.08;100.00;98754.97;4484800;31;20153;-68
2023/06/03 03:46:27;;;;;;;11.02;4.20;;;;;;;13.18;100.00;98747.81;4484854;32;20148;-68
2023/06/03 03:48:56;;;;;;;9.00;4.30;;;;;;;13.31;100.00;98761.38;4484459;31;20096;-68
2023/06/03 03:51:23;;;;;;;8.02;4.28;;;;;;;13.37;100.00;98760.00;4484676;31;20101;-68
2023/06/03 03:53:51;;;;;;;9.25;4.00;;;;;;;13.51;100.00;98766.47;4483300;32;20470;-67
2023/06/03 03:56:21;;;;;;;10.77;4.10;;;;;;;13.57;100.00;98765.84;4483578;32;20266;-67
2023/06/03 03:58:52;;;;;;;13.02;4.62;;;;;;;13.67;100.00;98771.00;4484374;31;20110;-67
2023/06/03 04:01:23;;;;;;;8.38;4.32;;;;;;;13.80;100.00;98766.13;4484169;31;20118;-68
2023/06/03 04:03:54;;;;;;;8.70;4.57;;;;;;;13.97;100.00;98763.56;4484419;31;20101;-68
2023/06/03 04:06:32;;;;;;;8.75;3.90;;;;;;;14.15;100.00;98766.09;4484638;31;20088;-67
2023/06/03 04:09:02;;;;;;;8.40;4.20;;;;;;;14.22;100.00;98779.44;4483074;32;20160;-68
2023/06/03 04:11:38;;;;;;;13.18;4.40;;;;;;;14.28;100.00;98765.66;4484136;31;20445;-68
2023/06/03 04:14:10;;;;;;;6.90;4.00;;;;;;;14.38;100.00;98775.06;4470014;31;20134;-67
2023/06/03 04:16:54;;;;;;;7.20;4.47;;;;;;;14.49;100.00;98781.00;4480712;32;20110;-68
2023/06/03 04:19:32;;;;;;;7.50;4.10;;;;;;;14.60;100.00;98777.25;4484345;32;20155;-67
2023/06/03 04:22:01;;;;;;;11.80;3.97;;;;;;;14.75;100.00;98783.53;4484596;31;20361;-68
2023/06/03 04:24:29;;;;;;;9.20;4.65;;;;;;;14.83;100.00;98778.25;4484033;31;20085;-67
2023/06/03 04:26:58;;;;;;;9.82;5.03;;;;;;;14.93;100.00;98775.47;4484330;31;20127;-68
2023/06/03 04:29:26;;;;;;;9.57;4.68;;;;;;;15.12;100.00;98789.31;4484198;31;20100;-68
2023/06/03 04:31:54;;;;;;;7.78;4.70;;;;;;;15.22;100.00;98785.50;4484278;32;20080;-67
2023/06/03 04:34:22;;;;;;;9.82;4.75;;;;;;;15.31;100.00;98786.34;4484189;31;20101;-68
2023/06/03 04:36:49;;;;;;;7.53;4.00;;;;;;;15.53;100.00;98783.97;4483746;31;20097;-67
2023/06/03 04:39:17;;;;;;;7.20;4.25;;;;;;;15.60;100.00;98785.78;4484105;32;20160;-68
2023/06/03 04:41:46;;;;;;;9.13;4.60;;;;;;;15.74;100.00;98786.88;4484026;31;20107;-68
2023/06/03 04:44:13;;;;;;;7.43;4.55;;;;;;;15.83;100.00;98784.25;4484146;31;20104;-68
2023/06/03 04:46:45;;;;;;;7.45;4.47;;;;;;;15.82;100.00;98791.38;4482157;32;20196;-68
2023/06/03 04:49:13;;;;;;;7.60;4.32;;;;;;;15.90;100.00;98793.97;4483614;31;20552;-68
2023/06/03 04:51:42;;;;;;;10.23;4.43;;;;;;;16.05;99.65;98799.38;4483743;32;20084;-68
2023/06/03 04:54:10;;;;;;;9.05;4.53;;;;;;;16.16;98.40;98798.16;4485311;31;20122;-68
2023/06/03 04:56:38;;;;;;;10.73;3.80;;;;;;;16.21;92.13;98800.28;4484612;32;20147;-68
2023/06/03 04:59:05;;;;;;;14.68;4.60;;;;;;;16.16;89.48;98805.28;4485885;31;20116;-68
2023/06/03 05:01:36;;;;;;;7.68;4.15;;;;;;;16.06;86.40;98806.28;4485700;31;20188;-68
2023/06/03 05:04:08;;;;;;;9.32;4.60;;;;;;;16.17;87.04;98809.56;4486210;31;20092;-68
2023/06/03 05:06:36;;;;;;;9.88;4.30;;;;;;;16.37;87.60;98808.12;4486065;31;20088;-68
2023/06/03 05:09:04;;;;;;;10.55;4.45;;;;;;;16.56;87.68;98809.50;4485944;31;20175;-68
2023/06/03 05:11:32;;;;;;;9.75;4.37;;;;;;;16.63;91.87;98817.56;4486062;31;20127;-68
2023/06/03 05:14:00;;;;;;;16.85;4.80;;;;;;;16.83;92.60;98812.66;4472615;31;20119;-68
2023/06/03 05:16:28;;;;;;;8.52;4.03;;;;;;;16.66;87.36;98806.66;4481090;32;20488;-68
2023/06/03 05:18:55;;;;;;;9.50;4.20;;;;;;;16.77;85.94;98813.34;4486044;32;20605;-68
2023/06/03 05:21:23;;;;;;;16.92;6.07;;;;;;;16.78;84.90;98815.81;4485948;32;20092;-67
2023/06/03 05:23:50;;;;;;;11.98;4.20;;;;;;;16.88;86.60;98814.78;4485652;32;20140;-68
2023/06/03 05:26:17;;;;;;;10.40;5.47;;;;;;;16.98;84.95;98818.03;4485721;32;20092;-68
2023/06/03 05:28:45;;;;;;;7.57;4.15;;;;;;;16.99;87.28;98822.34;4485680;31;20563;-68
2023/06/03 05:31:12;;;;;;;8.43;4.62;;;;;;;17.02;89.42;98827.28;4485901;31;20097;-68
2023/06/03 05:33:41;;;;;;;8.90;4.75;;;;;;;17.06;89.06;98823.25;4485737;31;20100;-68
2023/06/03 05:36:10;;;;;;;8.10;4.20;;;;;;;17.27;87.70;98825.22;4485854;31;20101;-68
2023/06/03 05:38:38;;;;;;;19.52;5.18;;;;;;;17.23;88.63;98831.91;4485896;31;20517;-68
2023/06/03 05:41:06;;;;;;;10.50;4.80;;;;;;;17.13;88.72;98833.97;4485801;31;20163;-68
2023/06/03 05:43:34;;;;;;;10.23;5.35;;;;;;;16.90;88.43;98828.69;4485862;31;20104;-68
2023/06/03 05:46:02;;;;;;;10.00;4.62;;;;;;;17.05;88.81;98837.50;4485632;32;20115;-68
2023/06/03 05:48:30;;;;;;;8.45;4.53;;;;;;;16.98;87.92;98833.91;4485942;31;20134;-68
2023/06/03 05:50:58;;;;;;;15.20;4.82;;;;;;;17.03;85.12;98834.19;4484300;32;20095;-68
2023/06/03 05:53:25;;;;;;;10.65;4.78;;;;;;;17.24;86.51;98840.66;4485838;32;20172;-68
2023/06/03 05:55:53;;;;;;;9.38;4.35;;;;;;;17.30;84.36;98838.09;4485625;31;20123;-68
2023/06/03 05:58:21;;;;;;;7.95;4.70;;;;;;;17.34;83.50;98835.94;4485709;31;20096;-68
2023/06/03 06:00:49;;;;;;;12.13;4.70;;;;;;;17.53;82.07;98838.09;4485363;31;20104;-68
2023/06/03 06:03:18;;;;;;;7.25;3.67;;;;;;;17.57;80.84;98843.84;4485414;31;20088;-68
2023/06/03 06:05:45;;;;;;;14.52;4.25;;;;;;;17.75;80.84;98838.19;4484303;31;20809;-68
2023/06/03 06:08:13;;;;;;;10.45;3.97;;;;;;;17.90;80.77;98836.41;4485328;31;20097;-68
2023/06/03 06:10:40;;;;;;;7.60;4.60;;;;;;;17.83;75.36;98840.75;4485668;31;20460;-68
2023/06/03 06:13:07;;;;;;;9.23;4.22;;;;;;;17.71;76.09;98836.91;4477592;32;20450;-68
2023/06/03 06:15:35;;;;;;;13.40;4.30;;;;;;;17.46;76.17;98839.81;4475229;32;20109;-68
2023/06/03 06:18:03;;;;;;;7.53;4.30;;;;;;;17.84;77.87;98839.75;4485195;32;20378;-68
2023/06/03 06:20:30;;;;;;;8.75;4.30;;;;;;;18.08;78.28;98848.47;4485340;31;20135;-68
2023/06/03 06:22:57;;;;;;;10.30;3.97;;;;;;;18.04;77.06;98847.19;4485636;31;20123;-68
2023/06/03 06:25:25;;;;;;;11.02;4.97;;;;;;;18.09;77.82;98848.28;4485194;32;20746;-68
2023/06/03 06:27:52;;;;;;;7.18;4.15;;;;;;;18.04;74.02;98847.19;4485139;32;20103;-68
2023/06/03 06:30:21;;;;;;;7.25;4.18;;;;;;;18.10;77.19;98851.75;4485427;32;20099;-68
2023/06/03 06:32:50;;;;;;;6.75;4.40;;;;;;;17.76;75.90;98854.91;4485298;31;20443;-68
2023/06/03 06:35:19;;;;;;;7.68;4.03;;;;;;;17.97;77.04;98856.88;4485556;31;20450;-68
2023/06/03 06:37:48;;;;;;;7.15;4.28;;;;;;;18.18;85.45;98859.63;4485365;31;20519;-68
2023/06/03 06:40:19;;;;;;;8.57;4.32;;;;;;;18.16;78.26;98856.31;4485340;32;20088;-68
2023/06/03 06:42:46;;;;;;;7.80;4.30;;;;;;;18.63;81.87;98863.00;4485402;32;20093;-68
2023/06/03 06:45:15;;;;;;;7.40;3.75;;;;;;;18.85;80.48;98868.41;4485507;31;20154;-68
2023/06/03 06:47:44;;;;;;;7.78;4.32;;;;;;;18.92;76.40;98869.25;4485229;31;20114;-68
2023/06/03 06:50:30;;;;;;;7.40;4.78;;;;;;;19.10;72.06;98870.69;4485468;31;20108;-68
2023/06/03 06:52:58;;;;;;;6.90;4.18;;;;;;;18.95;72.82;98871.53;4485097;31;20195;-68
2023/06/03 06:56:01;;;;;;;7.60;3.67;;;;;;;18.77;70.21;98868.47;4484026;32;20465;-68
2023/06/03 06:58:34;;;;;;;6.68;4.40;;;;;;;18.78;74.44;98870.94;4420624;32;20244;-68
2023/06/03 07:01:06;;;;;;;7.20;4.28;;;;;;;18.80;69.93;98873.41;4420692;32;20214;-68
2023/06/03 07:03:35;;;;;;;9.05;4.30;;;;;;;18.71;71.53;98880.69;4420730;32;20149;-68
2023/06/03 07:06:03;;;;;;;7.80;3.92;;;;;;;18.32;72.39;98873.87;4420761;32;20144;-68
2023/06/03 07:08:31;;;;;;;6.43;4.20;;;;;;;18.21;73.55;98880.47;4420583;32;20440;-68
2023/06/03 07:11:02;;;;;;;7.03;4.68;;;;;;;18.05;76.76;98878.00;4420659;32;20395;-68
2023/06/03 07:13:30;;;;;;;8.13;4.18;;;;;;;17.57;77.97;98886.22;4410696;32;20101;-68
2023/06/03 07:15:57;;;;;;;11.43;4.57;;;;;;;17.44;78.48;98889.50;4412537;32;20527;-68
2023/06/03 07:18:27;;;;;;;7.62;4.55;;;;;;;17.45;78.96;98887.66;4420479;32;20114;-68
2023/06/03 07:20:55;;;;;;;9.68;4.60;;;;;;;17.55;81.75;98883.75;4420677;32;20618;-68
2023/06/03 07:23:25;;;;;;;14.23;4.78;;;;;;;17.41;83.20;98892.50;4420672;32;20117;-68
2023/06/03 07:25:55;;;;;;;8.15;4.43;;;;;;;17.31;83.75;98891.91;4420665;32;20510;-68
2023/06/03 07:28:34;;;;;;;9.57;4.70;;;;;;;17.30;81.94;98892.91;4420593;32;20180;-68
2023/06/03 07:31:05;;;;;;;9.23;4.20;;;;;;;17.28;81.59;98898.38;4420342;32;20110;-68
2023/06/03 07:33:37;;;;;;;7.65;3.92;;;;;;;17.27;82.52;98902.00;4439132;32;20152;-68
2023/06/03 07:36:05;;;;;;;7.95;4.43;;;;;;;17.31;83.37;98899.84;4483995;32;20760;-68
2023/06/03 07:38:42;;;;;;;10.63;4.72;;;;;;;17.32;82.66;98904.13;4485141;31;20144;-68
2023/06/03 07:41:10;;;;;;;10.50;4.75;;;;;;;17.49;81.73;98913.59;4485118;32;20072;-68
2023/06/03 07:43:40;;;;;;;9.20;4.57;;;;;;;17.76;79.43;98908.75;4484800;31;20529;-68
2023/06/03 07:46:08;;;;;;;11.95;4.72;;;;;;;17.99;76.57;98908.72;4484840;31;20093;-68
2023/06/03 07:48:37;;;;;;;8.02;4.40;;;;;;;18.26;76.25;98911.75;4484463;31;20133;-68
2023/06/03 07:51:07;;;;;;;10.75;4.70;;;;;;;18.53;74.41;98912.91;4484737;32;20130;-68
2023/06/03 07:53:36;;;;;;;7.30;4.60;;;;;;;18.50;73.78;98913.28;4484458;31;20114;-68
2023/06/03 07:56:13;;;;;;;8.48;5.15;;;;;;;18.73;74.11;98915.00;4484595;31;20088;-68
2023/06/03 07:58:40;;;;;;;12.40;5.28;;;;;;;18.95;71.16;98908.72;4484529;32;20107;-68
2023/06/03 08:01:09;;;;;;;10.18;5.20;;;;;;;19.13;72.93;98915.44;4484294;31;20088;-68
2023/06/03 08:03:36;;;;;;;14.02;4.60;;;;;;;19.57;71.89;98921.56;4484410;31;20100;-68
2023/06/03 08:06:06;;;;;;;8.05;4.40;;;;;;;19.48;69.08;98920.88;4484205;32;20453;-68
2023/06/03 08:08:34;;;;;;;9.95;5.00;;;;;;;19.67;67.13;98922.88;4484252;31;20084;-68
2023/06/03 08:11:01;;;;;;;7.20;4.53;;;;;;;19.62;66.61;98924.47;4484265;31;20096;-68
2023/06/03 08:13:29;;;;;;;11.18;4.70;;;;;;;19.29;67.06;98920.50;4474075;31;20162;-68
2023/06/03 08:15:56;;;;;;;9.45;5.10;;;;;;;19.74;68.95;98927.44;4476127;32;20172;-68
2023/06/03 08:18:44;;;;;;;8.65;4.50;;;;;;;19.81;73.08;98923.03;4484046;31;20087;-68
2023/06/03 08:21:12;;;;;;;9.20;4.47;;;;;;;20.05;71.25;98919.09;4484181;31;20193;-68
2023/06/03 08:23:40;;;;;;;10.73;4.65;;;;;;;20.47;66.44;98921.78;4483968;32;20092;-68
2023/06/03 08:26:10;;;;;;;7.03;4.47;;;;;;;20.57;63.16;98924.91;4484065;32;20524;-68
2023/06/03 08:28:38;;;;;;;7.22;4.37;;;;;;;20.66;61.00;98926.37;4484709;31;20092;-68
2023/06/03 08:31:06;;;;;;;18.48;5.10;;;;;;;21.03;63.79;98932.28;4486164;31;20532;-68
2023/06/03 08:33:34;;;;;;;8.00;4.90;;;;;;;21.00;64.40;98938.00;4486039;31;20115;-68
2023/06/03 08:36:01;;;;;;;8.85;4.57;;;;;;;20.62;60.61;98930.47;4485979;32;20122;-68
2023/06/03 08:38:29;;;;;;;10.73;4.97;;;;;;;20.62;64.20;98938.44;4484597;32;20458;-68
2023/06/03 08:40:57;;;;;;;7.68;4.68;;;;;;;20.77;63.46;98938.31;4484721;32;20096;-68
2023/06/03 08:43:28;;;;;;;7.80;4.50;;;;;;;20.77;62.20;98940.16;4485064;32;20155;-68
2023/06/03 08:45:58;;;;;;;11.18;4.87;;;;;;;20.74;66.72;98936.88;4486089;31;20417;-68
2023/06/03 08:48:37;;;;;;;10.27;5.05;;;;;;;20.81;60.80;98939.56;4486200;32;20095;-68
2023/06/03 08:51:05;;;;;;;9.95;4.70;;;;;;;20.90;61.74;98937.56;4486073;31;20110;-68
2023/06/03 08:53:58;;;;;;;9.63;5.82;;;;;;;20.92;59.66;98940.81;4485967;31;20131;-68
2023/06/03 08:56:27;;;;;;;7.18;4.47;;;;;;;20.98;63.34;98947.19;4483637;32;20100;-68
2023/06/03 08:59:01;;;;;;;9.70;5.32;;;;;;;20.82;61.45;98940.41;4484456;32;20096;-68
2023/06/03 09:01:36;;;;;;;10.35;5.57;;;;;;;20.47;61.86;98941.25;4485712;31;20092;-68
2023/06/03 09:04:04;;;;;;;12.25;4.85;;;;;;;20.32;62.45;98938.69;4486077;31;20115;-68
2023/06/03 09:06:32;;;;;;;10.32;4.32;;;;;;;20.06;62.90;98934.03;4485881;31;20084;-68
2023/06/03 09:09:00;;;;;;;11.07;5.53;;;;;;;20.04;64.61;98941.37;4484517;32;20663;-68
2023/06/03 09:11:28;;;;;;;10.27;4.80;;;;;;;20.04;63.87;98941.37;4484834;32;20079;-68
2023/06/03 09:13:56;;;;;;;10.40;5.30;;;;;;;20.25;66.13;98945.00;4458697;32;20170;-68
2023/06/03 09:16:25;;;;;;;10.15;4.97;;;;;;;20.49;60.83;98946.38;4475574;32;20100;-68
2023/06/03 09:18:52;;;;;;;12.30;4.53;;;;;;;20.89;58.94;98946.56;4484709;32;20112;-68
2023/06/03 09:21:20;;;;;;;8.50;4.60;;;;;;;21.53;61.60;98955.13;4484477;32;20096;-68
2023/06/03 09:23:48;;;;;;;8.60;4.95;;;;;;;22.12;56.86;98956.13;4485554;31;20095;-68
2023/06/03 09:26:15;;;;;;;8.85;5.32;;;;;;;22.51;57.54;98943.75;4485612;31;20212;-68
2023/06/03 09:28:47;;;;;;;7.32;5.03;;;;;;;22.55;53.08;98938.84;4485692;31;20119;-68
2023/06/03 09:31:14;;;;;;;10.98;4.70;;;;;;;22.22;53.87;98940.53;4485708;31;20068;-68
2023/06/03 09:33:41;;;;;;;10.95;4.57;;;;;;;22.20;55.29;98942.59;4485672;32;20150;-68
2023/06/03 09:36:11;;;;;;;6.32;5.10;;;;;;;22.58;51.29;98944.56;4485680;31;20122;-68
2023/06/03 09:38:54;;;;;;;7.68;5.00;;;;;;;22.22;50.86;98945.03;4485427;31;20088;-68
2023/06/03 09:41:23;;;;;;;6.90;4.73;;;;;;;21.92;54.17;98945.50;4485755;31;20143;-68
2023/06/03 09:44:02;;;;;;;8.27;4.93;;;;;;;21.49;54.51;98951.22;4485623;31;20413;-68
2023/06/03 09:46:31;;;;;;;6.97;4.50;;;;;;;21.62;56.53;98943.25;4485559;32;20155;-68
2023/06/03 09:49:13;;;;;;;11.90;4.62;;;;;;;21.48;56.68;98949.56;4485437;31;20104;-68
2023/06/03 09:51:55;;;;;;;10.23;5.15;;;;;;;21.34;58.08;98946.88;4485506;31;20088;-68
2023/06/03 09:54:23;;;;;;;10.13;4.78;;;;;;;20.71;57.27;98939.94;4485643;31;20397;-68
2023/06/03 09:56:51;;;;;;;11.55;4.47;;;;;;;20.77;59.41;98946.28;4485494;31;20653;-68
2023/06/03 09:59:21;;;;;;;8.85;4.35;;;;;;;20.54;58.17;98939.41;4485702;31;20151;-68
2023/06/03 10:01:50;;;;;;;11.27;5.15;;;;;;;20.47;60.74;98945.72;4485078;31;20110;-68
2023/06/03 10:04:23;;;;;;;13.48;5.68;;;;;;;20.45;61.41;98945.09;4485360;31;20167;-68
2023/06/03 10:07:16;;;;;;;7.95;4.97;;;;;;;20.46;58.25;98946.75;4485686;31;20565;-68
2023/06/03 10:09:45;;;;;;;9.23;5.12;;;;;;;21.44;58.13;98947.31;4485477;32;20549;-68
2023/06/03 10:12:14;;;;;;;11.25;4.60;;;;;;;21.70;54.20;98948.38;4483614;31;20095;-68
2023/06/03 10:14:45;;;;;;;11.43;4.72;;;;;;;21.53;54.60;98941.78;4469862;32;20567;-68
2023/06/03 10:17:14;;;;;;;8.32;4.82;;;;;;;22.23;57.87;98936.03;4454288;32;20093;-68
2023/06/03 10:19:43;;;;;;;7.85;5.12;;;;;;;22.71;51.86;98934.84;4454017;32;20485;-68
2023/06/03 10:22:17;;;;;;;9.45;4.90;;;;;;;23.36;55.07;98929.38;4454383;32;20651;-68
2023/06/03 10:24:49;;;;;;;9.43;4.47;;;;;;;23.28;51.06;98930.47;4454213;32;20115;-68
2023/06/03 10:27:17;;;;;;;12.98;4.18;;;;;;;23.50;57.70;98933.63;4454074;32;20111;-68
2023/06/03 10:29:45;;;;;;;7.68;4.93;;;;;;;23.70;46.57;98935.31;4454020;32;20093;-68
2023/06/03 10:32:12;;;;;;;6.10;4.53;;;;;;;23.20;49.02;98944.91;4453946;32;20123;-68
2023/06/03 10:34:41;;;;;;;7.93;5.20;;;;;;;23.05;48.37;98944.34;4454076;32;20117;-68
2023/06/03 10:37:12;;;;;;;13.07;5.90;;;;;;;22.49;50.43;98943.97;4454033;32;20097;-68
2023/06/03 10:39:41;;;;;;;8.57;4.95;;;;;;;21.85;52.64;98945.50;4454183;32;20184;-68
2023/06/03 10:42:10;;;;;;;10.68;4.97;;;;;;;21.34;52.56;98944.22;4453949;32;20462;-68
2023/06/03 10:44:38;;;;;;;10.95;4.57;;;;;;;20.99;53.67;98933.69;4453921;32;20105;-68
2023/06/03 10:47:06;;;;;;;7.37;5.22;;;;;;;21.13;54.37;98937.19;4453849;32;20093;-68
2023/06/03 10:49:44;;;;;;;8.88;4.47;;;;;;;21.02;54.78;98935.13;4454023;32;20092;-68
2023/06/03 10:52:49;;;;;;;9.13;4.78;;;;;;;21.08;55.00;98940.47;4451894;32;20578;-68
2023/06/03 10:55:30;;;;;;;9.40;4.80;;;;;;;21.19;52.63;98940.91;4454078;32;20093;-68
2023/06/03 10:58:09;;;;;;;8.15;4.50;;;;;;;21.13;56.91;98941.72;4452629;32;20120;-68
2023/06/03 11:00:59;;;;;;;7.00;4.72;;;;;;;21.03;56.94;98940.25;4452516;32;20157;-68
2023/06/03 11:03:52;;;;;;;7.95;5.15;;;;;;;21.66;54.97;98935.66;4453851;32;20081;-68
2023/06/03 11:06:22;;;;;;;8.98;4.93;;;;;;;22.09;56.34;98938.72;4420345;32;20102;-68
2023/06/03 11:09:05;;;;;;;6.15;4.50;;;;;;;22.68;57.00;98938.78;4420567;32;20512;-68
2023/06/03 11:12:04;;;;;;;11.77;4.80;;;;;;;23.38;54.73;98932.69;4420733;32;20507;-68
2023/06/03 11:14:32;;;;;;;6.72;4.32;;;;;;;23.18;48.10;98938.12;4375350;32;20532;-68
2023/06/03 11:17:00;;;;;;;13.02;4.78;;;;;;;23.03;49.23;98930.41;4361314;32;20106;-68
2023/06/03 11:19:35;;;;;;;9.65;4.78;;;;;;;23.21;49.19;98929.72;4360077;32;20087;-68
2023/06/03 11:22:04;;;;;;;5.68;3.65;;;;;;;22.50;49.62;98926.13;4360035;32;20157;-68
2023/06/03 11:24:37;;;;;;;10.88;5.45;;;;;;;22.15;47.19;98926.41;4359978;32;20159;-68
2023/06/03 11:27:14;;;;;;;7.53;3.87;;;;;;;21.49;49.33;98930.69;4360009;32;20103;-68
2023/06/03 11:29:57;;;;;;;5.32;3.70;;;;;;;21.29;47.54;98930.69;4360032;32;20110;-68
2023/06/03 11:32:28;;;;;;;6.40;4.32;;;;;;;21.42;48.79;98930.72;4360163;32;20126;-68
2023/06/03 11:35:03;;;;;;;6.15;3.37;;;;;;;21.39;48.99;98931.12;4359958;32;20090;-68
2023/06/03 11:37:43;;;;;;;7.65;3.90;;;;;;;21.43;49.21;98927.00;4359824;32;20138;-68
2023/06/03 11:40:19;;;;;;;5.85;3.62;;;;;;;21.80;52.03;98932.78;4360241;32;20099;-68